createdAt,value
2022-08-11T08:50:27.454Z,100847.22
2022-08-11T08:52:43.690Z,100847.22
2022-08-11T08:54:51.029Z,100840.78
2022-08-11T08:56:56.271Z,100846.78
2022-08-11T08:59:01.338Z,100841.41
2022-08-11T09:01:04.574Z,100848.47
2022-08-11T09:03:29.581Z,100846.97
2022-08-11T09:05:30.100Z,100841.25
2022-08-11T09:07:39.063Z,100825.53
2022-08-11T09:09:45.225Z,100830.78
2022-08-11T09:11:53.673Z,100823.53
2022-08-11T09:14:05.150Z,100833.87
2022-08-11T09:16:11.927Z,100829.87
2022-08-11T09:18:18.071Z,100826.69
2022-08-11T09:20:24.846Z,100814.91
2022-08-11T09:22:47.252Z,100809.56
2022-08-11T09:25:10.174Z,100818.19
2022-08-11T09:27:13.774Z,100812.78
2022-08-11T09:29:16.425Z,100820.53
2022-08-11T09:31:21.926Z,100811.47
2022-08-11T09:33:25.403Z,100812.25
2022-08-11T09:35:29.344Z,100811.66
2022-08-11T09:37:55.350Z,100807.56
2022-08-11T09:40:18.318Z,100803.59
2022-08-11T09:42:24.013Z,100795.38
2022-08-11T09:45:03.319Z,100796.31
2022-08-11T09:47:08.283Z,100792.34
2022-08-11T09:49:10.937Z,100792.87
2022-08-11T09:51:15.623Z,100791.03
2022-08-11T09:53:36.535Z,100790.19
2022-08-11T09:55:41.011Z,100789.72
2022-08-11T09:58:06.080Z,100798.19
2022-08-11T10:00:13.473Z,100793.28
2022-08-11T10:02:18.567Z,100788.59
2022-08-11T10:04:34.994Z,100790.66
2022-08-11T10:06:57.973Z,100790.81
2022-08-11T10:09:00.980Z,100778.88
2022-08-11T10:11:04.094Z,100785.19
2022-08-11T10:14:04.893Z,100787.00
2022-08-11T10:15:55.709Z,100777.25
2022-08-11T10:18:30.082Z,100771.12
2022-08-11T10:20:35.400Z,100781.12
2022-08-11T10:22:56.654Z,100771.66
2022-08-11T10:25:19.990Z,100776.37
2022-08-11T10:27:28.629Z,100763.84
2022-08-11T10:30:05.595Z,100755.09
2022-08-11T10:32:31.436Z,100763.72
2022-08-11T10:34:35.579Z,100758.09
2022-08-11T10:36:50.646Z,100750.28
2022-08-11T10:38:53.268Z,100740.66
2022-08-11T10:41:14.741Z,100748.91
2022-08-11T10:44:01.935Z,100741.22
2022-08-11T10:46:01.559Z,100746.41
2022-08-11T10:48:06.247Z,100744.47
2022-08-11T10:50:29.713Z,100746.13
2022-08-11T10:52:50.968Z,100742.63
2022-08-11T10:55:12.202Z,100748.06
2022-08-11T10:57:36.163Z,100734.09
2022-08-11T10:59:38.952Z,100733.44
2022-08-11T11:01:44.197Z,100732.72
2022-08-11T11:03:47.791Z,100732.53
2022-08-11T11:06:13.214Z,100727.94
2022-08-11T11:08:35.462Z,100724.91
2022-08-11T11:10:41.004Z,100722.59
2022-08-11T11:13:05.557Z,100711.91
2022-08-11T11:15:27.809Z,100716.41
2022-08-11T11:17:54.446Z,100713.06
2022-08-11T11:20:00.624Z,100711.34
2022-08-11T11:22:23.170Z,100710.44
2022-08-11T11:24:45.956Z,100698.16
2022-08-11T11:26:56.004Z,100700.63
2022-08-11T11:29:13.345Z,100698.03
2022-08-11T11:31:43.450Z,100696.19
2022-08-11T11:34:06.643Z,100694.06
2022-08-11T11:36:55.295Z,100683.44
2022-08-11T11:38:59.348Z,100681.03
2022-08-11T11:41:20.746Z,100672.72
2022-08-11T11:43:23.133Z,100687.28
2022-08-11T11:45:26.169Z,100689.13
2022-08-11T11:47:30.153Z,100692.38
2022-08-11T11:49:33.326Z,100691.84
2022-08-11T11:51:37.989Z,100688.09
2022-08-11T11:53:45.170Z,100688.47
2022-08-11T11:55:47.817Z,100674.53
2022-08-11T11:58:10.923Z,100683.28
2022-08-11T12:00:43.309Z,100677.53
2022-08-11T12:02:46.384Z,100673.91
2022-08-11T12:04:48.956Z,100679.97
2022-08-11T12:07:12.032Z,100671.69
2022-08-11T12:09:18.460Z,100667.31
2022-08-11T12:11:43.472Z,100668.38
2022-08-11T12:13:51.064Z,100666.44
2022-08-11T12:16:32.241Z,100665.34
2022-08-11T12:18:17.178Z,100657.09
2022-08-11T12:20:33.881Z,100642.19
2022-08-11T12:22:55.742Z,100648.28
2022-08-11T12:25:16.939Z,100635.50
2022-08-11T12:27:37.208Z,100630.91
2022-08-11T12:29:45.324Z,100630.41
2022-08-11T12:31:49.166Z,100636.94
2022-08-11T12:33:51.582Z,100633.44
2022-08-11T12:36:00.576Z,100633.97
2022-08-11T12:38:10.772Z,100621.47
2022-08-11T12:41:13.849Z,100627.41
2022-08-11T12:43:36.926Z,100629.84
2022-08-11T12:45:43.122Z,100625.88
2022-08-11T12:48:59.956Z,100633.13
2022-08-11T12:50:50.297Z,100629.00
2022-08-11T12:52:57.042Z,100625.12
2022-08-11T12:55:08.515Z,100636.59
2022-08-11T12:57:37.241Z,100623.03
2022-08-11T12:59:59.783Z,100627.50
2022-08-11T13:02:22.353Z,100618.81
2022-08-11T13:04:47.448Z,100615.69
2022-08-11T13:06:54.380Z,100617.59
2022-08-11T13:09:01.265Z,100611.50
2022-08-11T13:11:23.519Z,100617.66
2022-08-11T13:13:26.894Z,100607.38
2022-08-11T13:15:50.202Z,100604.75
2022-08-11T13:17:55.581Z,100596.69
2022-08-11T13:19:59.648Z,100602.03
2022-08-11T13:22:07.555Z,100594.31
2022-08-11T13:24:10.269Z,100595.94
2022-08-11T13:26:13.210Z,100605.78
2022-08-11T13:28:18.629Z,100598.25
2022-08-11T13:30:47.125Z,100601.94
2022-08-11T13:32:50.773Z,100601.19
2022-08-11T13:34:53.505Z,100596.66
2022-08-11T13:37:00.203Z,100598.47
2022-08-11T13:39:03.649Z,100600.72
2022-08-11T13:41:26.209Z,100596.84
2022-08-11T13:43:29.608Z,100588.34
2022-08-11T13:45:33.823Z,100586.50
2022-08-11T13:47:39.553Z,100589.37
2022-08-11T13:49:45.049Z,100579.22
2022-08-11T13:51:47.919Z,100581.69
2022-08-11T13:53:50.516Z,100583.56
2022-08-11T13:55:54.267Z,100581.53
2022-08-11T13:58:07.180Z,100581.69
2022-08-11T14:00:27.611Z,100572.37
2022-08-11T14:02:31.917Z,100579.59
2022-08-11T14:04:40.521Z,100576.53
2022-08-11T14:06:49.061Z,100576.31
2022-08-11T14:08:53.697Z,100573.41
2022-08-11T14:12:22.487Z,100576.53
2022-08-11T14:13:48.176Z,100567.19
2022-08-11T14:15:52.913Z,100565.53
2022-08-11T14:18:01.765Z,100566.41
2022-08-11T14:20:38.677Z,100572.56
2022-08-11T14:22:32.313Z,100570.88
2022-08-11T14:24:49.682Z,100572.16
2022-08-11T14:26:54.152Z,100575.91
2022-08-11T14:29:15.182Z,100566.59
2022-08-11T14:31:17.934Z,100571.28
2022-08-11T14:33:20.509Z,100564.69
2022-08-11T14:35:27.473Z,100567.81
2022-08-11T14:37:30.015Z,100567.59
2022-08-11T14:39:36.225Z,100556.81
2022-08-11T14:42:10.365Z,100559.50
2022-08-11T14:44:33.764Z,100559.50
2022-08-11T14:46:56.322Z,100558.87
2022-08-11T14:48:59.899Z,100556.59
2022-08-11T14:51:02.357Z,100548.94
2022-08-11T14:53:10.532Z,100552.84
2022-08-11T14:55:38.140Z,100561.50
2022-08-11T14:57:55.152Z,100556.91
2022-08-11T15:00:03.918Z,100545.41
2022-08-11T15:02:26.925Z,100550.38
2022-08-11T15:04:36.533Z,100548.31
2022-08-11T15:06:39.665Z,100554.19
2022-08-11T15:08:57.458Z,100568.25
2022-08-11T15:11:00.172Z,100550.62
2022-08-11T15:13:04.160Z,100551.69
2022-08-11T15:15:27.119Z,100554.53
2022-08-11T15:17:42.926Z,100564.91
2022-08-11T15:20:06.588Z,100556.13
2022-08-11T15:22:29.545Z,100563.44
2022-08-11T15:24:35.204Z,100564.03
2022-08-11T15:26:58.902Z,100561.16
2022-08-11T15:29:23.439Z,100559.75
2022-08-11T15:31:49.122Z,100565.69
2022-08-11T15:34:14.393Z,100561.50
2022-08-11T15:36:39.703Z,100556.09
2022-08-11T15:38:55.467Z,100548.66
2022-08-11T15:41:18.774Z,100556.22
2022-08-11T15:43:44.002Z,100555.94
2022-08-11T15:45:50.581Z,100555.47
2022-08-11T15:48:05.349Z,100549.19
2022-08-11T15:50:14.919Z,100549.03
2022-08-11T15:52:21.511Z,100547.31
2022-08-11T15:54:26.511Z,100546.47
2022-08-11T15:56:32.267Z,100547.66
2022-08-11T15:59:40.519Z,100546.91
2022-08-11T16:01:43.061Z,100546.19
2022-08-11T16:04:12.579Z,100548.75
2022-08-11T16:06:16.662Z,100543.41
2022-08-11T16:08:26.072Z,100544.06
2022-08-11T16:10:36.688Z,100542.37
2022-08-11T16:13:20.471Z,100545.00
2022-08-11T16:15:41.182Z,100542.63
2022-08-11T16:17:52.377Z,100547.94
2022-08-11T16:19:56.844Z,100546.06
2022-08-11T16:21:59.427Z,100542.31
2022-08-11T16:24:06.685Z,100538.53
2022-08-11T16:27:08.420Z,100546.53
2022-08-11T16:28:36.023Z,100539.25
2022-08-11T16:30:41.594Z,100532.41
2022-08-11T16:32:53.070Z,100532.72
2022-08-11T16:35:17.492Z,100533.50
2022-08-11T16:37:42.344Z,100525.63
2022-08-11T16:39:45.362Z,100539.00
2022-08-11T16:43:00.041Z,100527.44
2022-08-11T16:44:53.629Z,100539.66
2022-08-11T16:47:01.085Z,100534.50
2022-08-11T16:49:18.565Z,100539.91
2022-08-11T16:51:22.747Z,100532.34
2022-08-11T16:53:54.581Z,100528.50
2022-08-11T16:55:53.074Z,100539.06
2022-08-11T16:58:14.939Z,100537.41
2022-08-11T17:00:18.275Z,100543.88
2022-08-11T17:02:43.114Z,100540.00
2022-08-11T17:05:14.666Z,100543.53
2022-08-11T17:07:41.512Z,100535.94
2022-08-11T17:10:31.869Z,100537.81
2022-08-11T17:12:52.142Z,100538.41
2022-08-11T17:15:02.642Z,100532.16
2022-08-11T17:17:12.929Z,100547.59
2022-08-11T17:20:38.632Z,100562.34
2022-08-11T17:22:11.733Z,100556.88
2022-08-11T17:24:15.024Z,100571.41
2022-08-11T17:26:49.804Z,100574.41
2022-08-11T17:28:59.473Z,100571.19
2022-08-11T17:31:23.601Z,100587.84
2022-08-11T17:33:45.222Z,100587.25
2022-08-11T17:35:48.991Z,100583.16
2022-08-11T17:37:53.370Z,100593.09
2022-08-11T17:39:56.344Z,100591.53
2022-08-11T17:42:19.704Z,100593.94
2022-08-11T17:44:41.595Z,100598.16
2022-08-11T17:47:06.283Z,100603.84
2022-08-11T17:49:11.480Z,100612.53
2022-08-11T17:51:39.422Z,100610.37
2022-08-11T17:54:16.932Z,100623.72
2022-08-11T17:56:44.174Z,100622.91
2022-08-11T17:59:09.277Z,100625.59
2022-08-11T18:01:13.027Z,100620.91
2022-08-11T18:03:33.191Z,100619.56
2022-08-11T18:05:37.902Z,100618.16
2022-08-11T18:08:02.778Z,100623.22
2022-08-11T18:10:26.329Z,100631.06
2022-08-11T18:12:47.330Z,100617.72
2022-08-11T18:15:11.921Z,100619.56
2022-08-11T18:17:33.183Z,100624.34
2022-08-11T18:19:54.856Z,100626.84
2022-08-11T18:22:24.588Z,100623.47
2022-08-11T18:24:51.514Z,100631.62
2022-08-11T18:27:14.010Z,100630.09
2022-08-11T18:29:42.067Z,100635.19
2022-08-11T18:32:08.252Z,100635.06
2022-08-11T18:34:34.714Z,100634.88
2022-08-11T18:37:19.594Z,100635.59
2022-08-11T18:39:56.122Z,100638.28
2022-08-11T18:42:30.850Z,100641.66
2022-08-11T18:44:53.944Z,100643.72
2022-08-11T18:47:16.570Z,100640.84
2022-08-11T18:50:04.017Z,100642.16
2022-08-11T18:52:25.961Z,100639.16
2022-08-11T18:54:52.630Z,100637.50
2022-08-11T18:57:18.918Z,100640.59
2022-08-11T18:59:45.493Z,100644.31
2022-08-11T19:02:07.225Z,100646.72
2022-08-11T19:04:30.680Z,100642.69
2022-08-11T19:06:55.147Z,100645.31
2022-08-11T19:09:19.440Z,100649.22
2022-08-11T19:11:43.746Z,100653.56
2022-08-11T19:14:07.007Z,100645.62
2022-08-11T19:16:29.224Z,100641.28
2022-08-11T19:18:52.718Z,100640.63
2022-08-11T19:21:15.806Z,100639.97
2022-08-11T19:23:43.513Z,100643.25
2022-08-11T19:26:06.243Z,100644.78
2022-08-11T19:28:27.881Z,100644.88
2022-08-11T19:30:50.764Z,100645.78
2022-08-11T19:33:13.466Z,100644.13
2022-08-11T19:35:35.272Z,100643.38
2022-08-11T19:37:59.128Z,100639.09
2022-08-11T19:40:26.511Z,100639.28
2022-08-11T19:42:48.331Z,100635.75
2022-08-11T19:45:09.862Z,100636.00
2022-08-11T19:47:32.470Z,100637.69
2022-08-11T19:49:54.296Z,100634.09
2022-08-11T19:52:17.213Z,100636.06
2022-08-11T19:54:38.726Z,100635.72
2022-08-11T19:57:01.710Z,100641.47
2022-08-11T19:59:24.052Z,100636.38
2022-08-11T20:02:12.953Z,100639.91
2022-08-11T20:04:26.606Z,100641.81
2022-08-11T20:06:49.563Z,100642.84
2022-08-11T20:09:14.682Z,100643.22
2022-08-11T20:11:37.131Z,100635.97
2022-08-11T20:14:01.876Z,100639.09
2022-08-11T20:16:23.796Z,100644.88
2022-08-11T20:18:46.107Z,100645.59
2022-08-11T20:21:17.311Z,100653.13
2022-08-11T20:23:47.891Z,100646.47
2022-08-11T20:26:31.845Z,100642.41
2022-08-11T20:28:52.446Z,100641.56
2022-08-11T20:31:14.182Z,100637.56
2022-08-11T20:33:37.183Z,100645.56
2022-08-11T20:35:58.881Z,100650.56
2022-08-11T20:38:21.516Z,100648.22
2022-08-11T20:40:44.132Z,100643.50
2022-08-11T20:43:05.898Z,100650.94
2022-08-11T20:45:53.543Z,100647.94
2022-08-11T20:48:21.082Z,100646.44
2022-08-11T20:50:46.165Z,100648.88
2022-08-11T20:53:09.231Z,100644.91
2022-08-11T20:55:46.108Z,100649.66
2022-08-11T20:58:17.698Z,100647.16
2022-08-11T21:00:40.156Z,100654.69
2022-08-11T21:03:02.722Z,100653.75
2022-08-11T21:06:10.447Z,100653.72
2022-08-11T21:08:09.607Z,100661.50
2022-08-11T21:10:35.219Z,100661.44
2022-08-11T21:12:59.140Z,100657.03
2022-08-11T21:15:47.369Z,100666.94
2022-08-11T21:18:28.568Z,100657.91
2022-08-11T21:20:52.190Z,100666.12
2022-08-11T21:23:24.514Z,100664.47
2022-08-11T21:25:47.280Z,100670.13
2022-08-11T21:28:10.448Z,100668.09
2022-08-11T21:30:31.912Z,100669.97
2022-08-11T21:32:54.047Z,100676.94
2022-08-11T21:35:17.775Z,100678.13
2022-08-11T21:37:39.833Z,100684.72
2022-08-11T21:40:04.764Z,100680.06
2022-08-11T21:42:29.438Z,100684.56
2022-08-11T21:44:51.162Z,100681.13
2022-08-11T21:47:17.331Z,100679.12
2022-08-11T21:49:42.044Z,100680.34
2022-08-11T21:52:03.564Z,100686.06
2022-08-11T21:54:25.736Z,100687.50
2022-08-11T21:56:49.773Z,100689.38
2022-08-11T21:59:12.327Z,100683.84
2022-08-11T22:01:34.427Z,100687.22
2022-08-11T22:03:57.936Z,100683.00
2022-08-11T22:06:19.590Z,100686.06
2022-08-11T22:08:42.168Z,100691.16
2022-08-11T22:11:03.451Z,100687.78
2022-08-11T22:13:24.419Z,100681.50
2022-08-11T22:15:45.681Z,100682.19
2022-08-11T22:18:06.859Z,100682.72
2022-08-11T22:20:30.535Z,100685.25
2022-08-11T22:22:53.751Z,100685.13
2022-08-11T22:25:18.341Z,100678.47
2022-08-11T22:27:40.468Z,100680.38
2022-08-11T22:30:01.466Z,100681.69
2022-08-11T22:32:24.568Z,100684.75
